17:47
Airports
History
Links
Donate
Help keep this website running!
PayPal
Bitcoin
This page is community maintained. The information is intended for PC simulator navigation or reference.
Always use approved charts for navigation.
9I9
Hide-a-Way Hills Resort
Hide-a-Way Hills Resort (9I9)
Logan, Ohio, United States (43138)
4
Lat/Lng:39° 38' 35.24" N / 82° 28' 0.56" W
39.643121 / -82.466823
Elevation:780'ft / 238mMSL
ID / ICAO:9I9
Runways:1
Longest:11-29
Grass 708m / 2,323ft
Nearby Weather16:53 GMT 2017-09-21
Nearby weather at KLHQ, Fairfield County located 12.8 nautical miles from 9I9
Altimeter: 30.12
Visibility: 10.0 statute miles
Wind: 3 knots (from 040°)
Temp: 29°c / 84°f
Humidity: 58.4%

METAR: KLHQ 211653Z AUTO 04003KT 10SM BKN038 OVC046 29/20 A3012 RMK AO2 SLP191 T02890200

(Powered by phpweather)
Nearby VORs <50NM
Nearby NDBs
Runway 11 / 29
Dimensions:708.1 x 30.5m 2323' x 100'ft
Surface:Grass
Runway 11 [A]Runway 29 [B]
Heading:105°TH 285°TH
Lat:
Lng:
39° 38' 38.18"N
82° 28' 14.81"W
39° 38' 32.3"N
82° 27' 46.32"W
User Notes and Comments
39° 38' 35.24" N / 82° 28' 0.56" W
Distance To
Airport ID:
Nearby Airports
(R) Deeds Field 3.9 NM
OH86 W 275°
(R) Lazy-w 9.0 NM
OI01 S 173°
(U) Fairfield County 12.8 NM
KLHQ ( WX ) NW 307°
(R) Amanda 14.4 NM
OH61 W 267°
(U) Perry County 14.7 NM
I86 ENE 76°
4 Industry Air Park 15.2 NM
9I6 NNW 336°
(R) Clum 16.7 NM
8OI5 N
VFR Chart
Flight Planning at SkyVector.com